Tokyo, Japan
Current Conditions -  °F | °C
As of 5:00 AM on Thursday 18 Dec 2014 (Local Time) from RJTT Reporting Station
Few Clouds Few Clouds  
Wind Chill:   Ceiling: Unl
Heat Index:   Visibility: 6mi
Dew Point: -10°   Wind: 5mph
Humidity: 41%   Direction: 280°W
Pressure: 29.74"   Gusts: NA
Location:  35.67°N, 139.77°E
Report Text: RJTT 172000Z 28004KT 9999 FEW030 02/M10 Q1007 NOSIG
Loading
Personal Weather Stations






























Interactive Weather Map New forecast layout! Learn more

10-Day Weather Forecast

Advertisements
Track Severe Weather on mobile